sensor_id;sensor_type;location;lat;lon;timestamp;temperature;humidity
39277;DHT22;63149;48.086;-1.606;2023-01-28T06:01:47;1.90;99.90
39277;DHT22;63149;48.086;-1.606;2023-01-28T06:04:14;1.80;99.90
39277;DHT22;63149;48.086;-1.606;2023-01-28T06:06:43;1.80;99.90
39277;DHT22;63149;48.086;-1.606;2023-01-28T06:09:10;1.80;99.90
39277;DHT22;63149;48.086;-1.606;2023-01-28T06:11:37;1.70;99.90
39277;DHT22;63149;48.086;-1.606;2023-01-28T06:14:04;1.70;99.90
39277;DHT22;63149;48.086;-1.606;2023-01-28T06:16:31;1.70;99.90
39277;DHT22;63149;48.086;-1.606;2023-01-28T06:18:59;1.70;99.90
39277;DHT22;63149;48.086;-1.606;2023-01-28T06:21:26;1.70;99.90
39277;DHT22;63149;48.086;-1.606;2023-01-28T06:23:53;1.60;99.90
39277;DHT22;63149;48.086;-1.606;2023-01-28T06:26:20;1.50;99.90
39277;DHT22;63149;48.086;-1.606;2023-01-28T06:28:47;1.50;99.90
39277;DHT22;63149;48.086;-1.606;2023-01-28T06:31:14;1.50;99.90
39277;DHT22;63149;48.086;-1.606;2023-01-28T06:33:41;1.50;99.90
39277;DHT22;63149;48.086;-1.606;2023-01-28T06:36:09;1.40;99.90
39277;DHT22;63149;48.086;-1.606;2023-01-28T06:38:36;1.40;99.90
39277;DHT22;63149;48.086;-1.606;2023-01-28T06:41:03;1.40;99.90
39277;DHT22;63149;48.086;-1.606;2023-01-28T06:43:30;1.40;99.90
39277;DHT22;63149;48.086;-1.606;2023-01-28T06:45:57;1.40;99.90
39277;DHT22;63149;48.086;-1.606;2023-01-28T06:48:25;1.30;99.90
39277;DHT22;63149;48.086;-1.606;2023-01-28T06:50:52;1.30;99.90
39277;DHT22;63149;48.086;-1.606;2023-01-28T06:53:21;1.20;99.90
39277;DHT22;63149;48.086;-1.606;2023-01-28T06:55:48;1.20;99.90
39277;DHT22;63149;48.086;-1.606;2023-01-28T06:58:15;1.20;99.90
39277;DHT22;63149;48.086;-1.606;2023-01-28T07:00:42;1.20;99.90
39277;DHT22;63149;48.086;-1.606;2023-01-28T07:03:09;1.20;99.90
39277;DHT22;63149;48.086;-1.606;2023-01-28T07:05:36;1.20;99.90
39277;DHT22;63149;48.086;-1.606;2023-01-28T07:08:03;1.20;99.90
39277;DHT22;63149;48.086;-1.606;2023-01-28T07:10:32;1.20;99.90
39277;DHT22;63149;48.086;-1.606;2023-01-28T07:12:59;1.20;99.90
39277;DHT22;63149;48.086;-1.606;2023-01-28T07:15:26;1.20;99.90
39277;DHT22;63149;48.086;-1.606;2023-01-28T07:17:53;1.20;99.90
39277;DHT22;63149;48.086;-1.606;2023-01-28T07:20:20;1.20;99.90
39277;DHT22;63149;48.086;-1.606;2023-01-28T07:22:47;1.20;99.90
39277;DHT22;63149;48.086;-1.606;2023-01-28T07:25:15;1.20;99.90
39277;DHT22;63149;48.086;-1.606;2023-01-28T07:27:48;1.20;99.90
39277;DHT22;63149;48.086;-1.606;2023-01-28T07:30:16;1.20;99.90
39277;DHT22;63149;48.086;-1.606;2023-01-28T07:32:43;1.20;99.90
39277;DHT22;63149;48.086;-1.606;2023-01-28T07:35:11;1.20;99.90
39277;DHT22;63149;48.086;-1.606;2023-01-28T07:37:38;1.30;99.90
39277;DHT22;63149;48.086;-1.606;2023-01-28T07:40:06;1.30;99.90
39277;DHT22;63149;48.086;-1.606;2023-01-28T07:42:33;1.30;99.90
39277;DHT22;63149;48.086;-1.606;2023-01-28T07:45:02;1.30;99.90
39277;DHT22;63149;48.086;-1.606;2023-01-28T07:47:29;1.30;99.90
39277;DHT22;63149;48.086;-1.606;2023-01-28T07:49:56;1.30;99.90
39277;DHT22;63149;48.086;-1.606;2023-01-28T07:52:23;1.40;99.90
39277;DHT22;63149;48.086;-1.606;2023-01-28T07:54:50;1.40;99.90
39277;DHT22;63149;48.086;-1.606;2023-01-28T07:57:17;1.40;99.90
39277;DHT22;63149;48.086;-1.606;2023-01-28T07:59:48;1.50;99.90
39277;DHT22;63149;48.086;-1.606;2023-01-28T08:02:17;1.50;99.90
39277;DHT22;63149;48.086;-1.606;2023-01-28T08:04:45;1.60;99.90
39277;DHT22;63149;48.086;-1.606;2023-01-28T08:07:12;1.60;99.90
39277;DHT22;63149;48.086;-1.606;2023-01-28T08:09:39;1.70;99.90
39277;DHT22;63149;48.086;-1.606;2023-01-28T08:12:06;1.70;99.90
39277;DHT22;63149;48.086;-1.606;2023-01-28T08:14:33;1.80;99.90
39277;DHT22;63149;48.086;-1.606;2023-01-28T08:17:00;1.80;99.90
39277;DHT22;63149;48.086;-1.606;2023-01-28T08:19:28;1.80;99.90
39277;DHT22;63149;48.086;-1.606;2023-01-28T08:21:55;1.90;99.90
39277;DHT22;63149;48.086;-1.606;2023-01-28T08:24:22;1.90;99.90
39277;DHT22;63149;48.086;-1.606;2023-01-28T08:26:49;2.00;99.90
39277;DHT22;63149;48.086;-1.606;2023-01-28T08:29:16;2.00;99.90
39277;DHT22;63149;48.086;-1.606;2023-01-28T08:31:43;2.10;99.90
39277;DHT22;63149;48.086;-1.606;2023-01-28T08:34:10;2.20;99.90
39277;DHT22;63149;48.086;-1.606;2023-01-28T08:36:39;2.20;99.90
39277;DHT22;63149;48.086;-1.606;2023-01-28T08:39:05;2.30;99.90
39277;DHT22;63149;48.086;-1.606;2023-01-28T08:41:32;2.30;99.90
39277;DHT22;63149;48.086;-1.606;2023-01-28T08:43:59;2.30;99.90
39277;DHT22;63149;48.086;-1.606;2023-01-28T08:46:26;2.40;99.90
39277;DHT22;63149;48.086;-1.606;2023-01-28T08:48:53;2.40;99.90
39277;DHT22;63149;48.086;-1.606;2023-01-28T08:51:20;2.40;99.90
39277;DHT22;63149;48.086;-1.606;2023-01-28T08:53:48;2.50;99.90
39277;DHT22;63149;48.086;-1.606;2023-01-28T08:56:15;2.50;99.90
39277;DHT22;63149;48.086;-1.606;2023-01-28T08:58:42;2.50;99.90
39277;DHT22;63149;48.086;-1.606;2023-01-28T09:01:09;2.50;99.90
39277;DHT22;63149;48.086;-1.606;2023-01-28T09:03:36;2.50;99.90
39277;DHT22;63149;48.086;-1.606;2023-01-28T09:06:04;2.50;99.90
39277;DHT22;63149;48.086;-1.606;2023-01-28T09:08:31;2.60;99.90
39277;DHT22;63149;48.086;-1.606;2023-01-28T09:10:59;2.60;99.90
39277;DHT22;63149;48.086;-1.606;2023-01-28T09:13:27;2.70;99.90
39277;DHT22;63149;48.086;-1.606;2023-01-28T09:15:54;2.70;99.90
39277;DHT22;63149;48.086;-1.606;2023-01-28T09:18:22;2.80;99.90
39277;DHT22;63149;48.086;-1.606;2023-01-28T09:20:48;2.90;99.90
39277;DHT22;63149;48.086;-1.606;2023-01-28T09:23:15;2.90;99.90
39277;DHT22;63149;48.086;-1.606;2023-01-28T09:25:42;3.00;99.90
39277;DHT22;63149;48.086;-1.606;2023-01-28T09:28:11;3.10;99.90
39277;DHT22;63149;48.086;-1.606;2023-01-28T09:30:38;3.20;99.90
39277;DHT22;63149;48.086;-1.606;2023-01-28T09:33:06;3.30;99.90
39277;DHT22;63149;48.086;-1.606;2023-01-28T09:35:33;3.40;99.90
39277;DHT22;63149;48.086;-1.606;2023-01-28T09:38:01;3.50;99.90
39277;DHT22;63149;48.086;-1.606;2023-01-28T09:40:32;3.70;99.90
39277;DHT22;63149;48.086;-1.606;2023-01-28T09:43:24;3.80;99.90
39277;DHT22;63149;48.086;-1.606;2023-01-28T09:45:56;4.00;99.90
39277;DHT22;63149;48.086;-1.606;2023-01-28T09:48:28;4.10;99.90
39277;DHT22;63149;48.086;-1.606;2023-01-28T09:50:57;4.30;99.90
39277;DHT22;63149;48.086;-1.606;2023-01-28T09:53:28;4.40;99.90
39277;DHT22;63149;48.086;-1.606;2023-01-28T09:56:00;4.60;99.90
39277;DHT22;63149;48.086;-1.606;2023-01-28T09:58:28;5.00;99.90
39277;DHT22;63149;48.086;-1.606;2023-01-28T10:00:59;5.10;99.90
39277;DHT22;63149;48.086;-1.606;2023-01-28T10:03:46;5.40;99.90
39277;DHT22;63149;48.086;-1.606;2023-01-28T10:06:23;5.60;99.90
39277;DHT22;63149;48.086;-1.606;2023-01-28T10:09:11;6.40;99.90
39277;DHT22;63149;48.086;-1.606;2023-01-28T10:11:59;7.00;99.90
39277;DHT22;63149;48.086;-1.606;2023-01-28T10:14:43;7.20;99.90
39277;DHT22;63149;48.086;-1.606;2023-01-28T10:17:15;7.20;99.90
39277;DHT22;63149;48.086;-1.606;2023-01-28T10:19:46;7.90;99.90
39277;DHT22;63149;48.086;-1.606;2023-01-28T10:22:17;7.60;99.90
39277;DHT22;63149;48.086;-1.606;2023-01-28T10:24:47;8.00;99.90
39277;DHT22;63149;48.086;-1.606;2023-01-28T10:27:18;7.80;99.90
39277;DHT22;63149;48.086;-1.606;2023-01-28T10:29:47;7.50;99.90
39277;DHT22;63149;48.086;-1.606;2023-01-28T10:32:21;7.80;99.90
39277;DHT22;63149;48.086;-1.606;2023-01-28T10:34:51;7.80;99.90
39277;DHT22;63149;48.086;-1.606;2023-01-28T10:37:18;7.90;99.90
39277;DHT22;63149;48.086;-1.606;2023-01-28T10:39:46;7.90;99.90
39277;DHT22;63149;48.086;-1.606;2023-01-28T10:42:26;7.50;99.90
39277;DHT22;63149;48.086;-1.606;2023-01-28T10:44:58;7.70;99.90
39277;DHT22;63149;48.086;-1.606;2023-01-28T10:47:29;7.00;99.90
39277;DHT22;63149;48.086;-1.606;2023-01-28T10:49:57;6.30;99.90
39277;DHT22;63149;48.086;-1.606;2023-01-28T10:52:25;6.40;99.90
39277;DHT22;63149;48.086;-1.606;2023-01-28T11:22:41;5.80;99.90
39277;DHT22;63149;48.086;-1.606;2023-01-28T11:25:15;5.70;99.90
39277;DHT22;63149;48.086;-1.606;2023-01-28T11:27:46;5.80;99.90
39277;DHT22;63149;48.086;-1.606;2023-01-28T11:30:22;5.80;99.90
39277;DHT22;63149;48.086;-1.606;2023-01-28T11:32:57;5.80;99.90
39277;DHT22;63149;48.086;-1.606;2023-01-28T11:35:26;5.80;99.90
39277;DHT22;63149;48.086;-1.606;2023-01-28T11:37:57;6.00;99.90
39277;DHT22;63149;48.086;-1.606;2023-01-28T11:40:24;6.00;99.90
39277;DHT22;63149;48.086;-1.606;2023-01-28T11:42:52;6.10;99.90
39277;DHT22;63149;48.086;-1.606;2023-01-28T11:45:30;6.00;99.90
39277;DHT22;63149;48.086;-1.606;2023-01-28T11:48:21;5.90;99.90
39277;DHT22;63149;48.086;-1.606;2023-01-28T11:50:55;6.00;99.90
39277;DHT22;63149;48.086;-1.606;2023-01-28T11:53:54;6.00;99.90
39277;DHT22;63149;48.086;-1.606;2023-01-28T11:56:27;6.00;99.90
39277;DHT22;63149;48.086;-1.606;2023-01-28T11:59:08;6.00;99.90
39277;DHT22;63149;48.086;-1.606;2023-01-28T12:01:42;6.10;99.90
39277;DHT22;63149;48.086;-1.606;2023-01-28T12:04:20;6.20;99.90
39277;DHT22;63149;48.086;-1.606;2023-01-28T12:06:58;6.20;99.90
39277;DHT22;63149;48.086;-1.606;2023-01-28T12:09:35;6.30;99.90
39277;DHT22;63149;48.086;-1.606;2023-01-28T12:12:18;6.40;99.90
39277;DHT22;63149;48.086;-1.606;2023-01-28T12:18:06;6.50;99.90
39277;DHT22;63149;48.086;-1.606;2023-01-28T12:20:43;6.60;99.90
39277;DHT22;63149;48.086;-1.606;2023-01-28T12:23:28;6.70;99.90
39277;DHT22;63149;48.086;-1.606;2023-01-28T12:26:05;6.80;99.90
39277;DHT22;63149;48.086;-1.606;2023-01-28T12:28:51;6.60;99.90
39277;DHT22;63149;48.086;-1.606;2023-01-28T12:31:40;6.50;99.90
39277;DHT22;63149;48.086;-1.606;2023-01-28T12:34:33;6.60;99.90
39277;DHT22;63149;48.086;-1.606;2023-01-28T12:37:07;6.60;99.90
39277;DHT22;63149;48.086;-1.606;2023-01-28T12:39:45;6.30;99.90
39277;DHT22;63149;48.086;-1.606;2023-01-28T12:42:24;6.30;99.90
39277;DHT22;63149;48.086;-1.606;2023-01-28T12:44:58;6.30;99.90
39277;DHT22;63149;48.086;-1.606;2023-01-28T12:47:32;6.30;99.90
39277;DHT22;63149;48.086;-1.606;2023-01-28T12:50:03;6.30;99.90
39277;DHT22;63149;48.086;-1.606;2023-01-28T12:52:39;6.20;99.90
39277;DHT22;63149;48.086;-1.606;2023-01-28T12:55:13;6.30;99.90
39277;DHT22;63149;48.086;-1.606;2023-01-28T12:57:43;6.30;99.90
39277;DHT22;63149;48.086;-1.606;2023-01-28T13:00:20;6.20;99.90
39277;DHT22;63149;48.086;-1.606;2023-01-28T13:02:59;6.20;99.90
39277;DHT22;63149;48.086;-1.606;2023-01-28T13:05:33;6.20;99.90
39277;DHT22;63149;48.086;-1.606;2023-01-28T13:08:05;6.20;99.90
39277;DHT22;63149;48.086;-1.606;2023-01-28T13:10:39;6.20;99.90
39277;DHT22;63149;48.086;-1.606;2023-01-28T13:13:14;6.10;99.90
39277;DHT22;63149;48.086;-1.606;2023-01-28T13:15:43;6.00;99.90
39277;DHT22;63149;48.086;-1.606;2023-01-28T13:18:29;6.00;99.90
39277;DHT22;63149;48.086;-1.606;2023-01-28T13:20:57;5.90;99.90
39277;DHT22;63149;48.086;-1.606;2023-01-28T13:23:25;5.80;99.90
39277;DHT22;63149;48.086;-1.606;2023-01-28T13:25:53;5.80;99.90
39277;DHT22;63149;48.086;-1.606;2023-01-28T13:28:27;5.80;99.90
39277;DHT22;63149;48.086;-1.606;2023-01-28T13:31:01;5.90;99.90
39277;DHT22;63149;48.086;-1.606;2023-01-28T13:33:31;5.90;99.90
39277;DHT22;63149;48.086;-1.606;2023-01-28T13:36:02;5.90;99.90
39277;DHT22;63149;48.086;-1.606;2023-01-28T13:38:30;5.90;99.90
39277;DHT22;63149;48.086;-1.606;2023-01-28T13:40:59;5.90;99.90
39277;DHT22;63149;48.086;-1.606;2023-01-28T13:43:39;5.90;99.90
39277;DHT22;63149;48.086;-1.606;2023-01-28T13:46:08;5.80;99.90
39277;DHT22;63149;48.086;-1.606;2023-01-28T13:48:40;5.70;99.90
39277;DHT22;63149;48.086;-1.606;2023-01-28T13:51:19;5.70;99.90
39277;DHT22;63149;48.086;-1.606;2023-01-28T13:53:52;5.70;99.90
39277;DHT22;63149;48.086;-1.606;2023-01-28T13:56:24;5.70;99.90
39277;DHT22;63149;48.086;-1.606;2023-01-28T13:59:32;5.80;99.90
39277;DHT22;63149;48.086;-1.606;2023-01-28T14:02:35;5.90;99.90
39277;DHT22;63149;48.086;-1.606;2023-01-28T14:05:28;5.90;99.90
39277;DHT22;63149;48.086;-1.606;2023-01-28T14:08:27;5.90;99.90
39277;DHT22;63149;48.086;-1.606;2023-01-28T14:11:06;5.90;99.90
39277;DHT22;63149;48.086;-1.606;2023-01-28T14:13:51;5.80;99.90
39277;DHT22;63149;48.086;-1.606;2023-01-28T14:16:29;5.90;99.90
39277;DHT22;63149;48.086;-1.606;2023-01-28T14:19:01;5.90;99.90
39277;DHT22;63149;48.086;-1.606;2023-01-28T14:21:31;5.80;99.90
39277;DHT22;63149;48.086;-1.606;2023-01-28T14:23:59;5.80;99.90
39277;DHT22;63149;48.086;-1.606;2023-01-28T14:26:41;5.70;99.90
39277;DHT22;63149;48.086;-1.606;2023-01-28T14:29:22;5.80;99.90
39277;DHT22;63149;48.086;-1.606;2023-01-28T14:31:54;5.70;99.90
39277;DHT22;63149;48.086;-1.606;2023-01-28T14:34:23;5.70;99.90
39277;DHT22;63149;48.086;-1.606;2023-01-28T14:36:53;5.70;99.90
39277;DHT22;63149;48.086;-1.606;2023-01-28T14:39:25;5.80;99.90
39277;DHT22;63149;48.086;-1.606;2023-01-28T14:41:53;5.80;99.90
39277;DHT22;63149;48.086;-1.606;2023-01-28T14:44:31;5.80;99.90
39277;DHT22;63149;48.086;-1.606;2023-01-28T14:47:22;5.90;99.90
39277;DHT22;63149;48.086;-1.606;2023-01-28T14:50:15;5.90;99.90
39277;DHT22;63149;48.086;-1.606;2023-01-28T14:55:41;6.00;99.90
39277;DHT22;63149;48.086;-1.606;2023-01-28T14:58:15;6.00;99.90
39277;DHT22;63149;48.086;-1.606;2023-01-28T15:00:52;6.00;99.90
39277;DHT22;63149;48.086;-1.606;2023-01-28T15:03:21;6.00;99.90
39277;DHT22;63149;48.086;-1.606;2023-01-28T15:05:48;6.00;99.90
39277;DHT22;63149;48.086;-1.606;2023-01-28T15:08:19;6.00;99.90
39277;DHT22;63149;48.086;-1.606;2023-01-28T15:10:48;6.00;99.90
39277;DHT22;63149;48.086;-1.606;2023-01-28T15:13:22;5.90;99.90
39277;DHT22;63149;48.086;-1.606;2023-01-28T15:15:52;5.90;99.90
39277;DHT22;63149;48.086;-1.606;2023-01-28T15:18:29;5.80;99.90
39277;DHT22;63149;48.086;-1.606;2023-01-28T15:20:57;5.80;99.90
39277;DHT22;63149;48.086;-1.606;2023-01-28T15:23:26;5.80;99.90
39277;DHT22;63149;48.086;-1.606;2023-01-28T15:25:54;5.80;99.90
39277;DHT22;63149;48.086;-1.606;2023-01-28T15:28:25;5.70;99.90
39277;DHT22;63149;48.086;-1.606;2023-01-28T15:30:53;5.80;99.90
39277;DHT22;63149;48.086;-1.606;2023-01-28T15:33:21;5.70;99.90
39277;DHT22;63149;48.086;-1.606;2023-01-28T15:35:51;5.60;99.90
39277;DHT22;63149;48.086;-1.606;2023-01-28T15:38:18;5.70;99.90
39277;DHT22;63149;48.086;-1.606;2023-01-28T15:40:49;5.60;99.90
39277;DHT22;63149;48.086;-1.606;2023-01-28T15:43:20;5.60;99.90
39277;DHT22;63149;48.086;-1.606;2023-01-28T15:45:49;5.60;99.90
39277;DHT22;63149;48.086;-1.606;2023-01-28T15:48:20;5.60;99.90
39277;DHT22;63149;48.086;-1.606;2023-01-28T15:50:58;5.60;99.90
39277;DHT22;63149;48.086;-1.606;2023-01-28T15:53:28;5.60;99.90
39277;DHT22;63149;48.086;-1.606;2023-01-28T15:56:05;5.60;99.90
39277;DHT22;63149;48.086;-1.606;2023-01-28T15:58:32;5.60;99.90
39277;DHT22;63149;48.086;-1.606;2023-01-28T16:01:10;5.60;99.90
39277;DHT22;63149;48.086;-1.606;2023-01-28T16:03:39;5.60;99.90
39277;DHT22;63149;48.086;-1.606;2023-01-28T16:06:09;5.60;99.90
39277;DHT22;63149;48.086;-1.606;2023-01-28T16:08:39;5.60;99.90
39277;DHT22;63149;48.086;-1.606;2023-01-28T16:11:09;5.60;99.90
39277;DHT22;63149;48.086;-1.606;2023-01-28T16:13:41;5.50;99.90
39277;DHT22;63149;48.086;-1.606;2023-01-28T16:16:09;5.60;99.90
39277;DHT22;63149;48.086;-1.606;2023-01-28T16:18:38;5.60;99.90
39277;DHT22;63149;48.086;-1.606;2023-01-28T16:21:08;5.60;99.90
39277;DHT22;63149;48.086;-1.606;2023-01-28T16:23:36;5.60;99.90
39277;DHT22;63149;48.086;-1.606;2023-01-28T16:26:17;5.60;99.90
39277;DHT22;63149;48.086;-1.606;2023-01-28T16:28:45;5.60;99.90
39277;DHT22;63149;48.086;-1.606;2023-01-28T16:31:11;5.60;99.90
39277;DHT22;63149;48.086;-1.606;2023-01-28T16:33:38;5.60;99.90
39277;DHT22;63149;48.086;-1.606;2023-01-28T16:36:10;5.60;99.90
39277;DHT22;63149;48.086;-1.606;2023-01-28T16:38:37;5.60;99.90
39277;DHT22;63149;48.086;-1.606;2023-01-28T16:41:11;5.60;99.90
39277;DHT22;63149;48.086;-1.606;2023-01-28T16:43:38;5.60;99.90
39277;DHT22;63149;48.086;-1.606;2023-01-28T16:46:07;5.60;99.90
39277;DHT22;63149;48.086;-1.606;2023-01-28T16:48:34;5.50;99.90
39277;DHT22;63149;48.086;-1.606;2023-01-28T16:51:03;5.50;99.90
39277;DHT22;63149;48.086;-1.606;2023-01-28T16:53:32;5.50;99.90
39277;DHT22;63149;48.086;-1.606;2023-01-28T16:56:00;5.50;99.90
39277;DHT22;63149;48.086;-1.606;2023-01-28T16:58:27;5.50;99.90
39277;DHT22;63149;48.086;-1.606;2023-01-28T17:00:54;5.40;99.90
39277;DHT22;63149;48.086;-1.606;2023-01-28T17:03:22;5.40;99.90
39277;DHT22;63149;48.086;-1.606;2023-01-28T17:05:49;5.40;99.90
39277;DHT22;63149;48.086;-1.606;2023-01-28T17:08:16;5.40;99.90
39277;DHT22;63149;48.086;-1.606;2023-01-28T17:10:44;5.40;99.90
39277;DHT22;63149;48.086;-1.606;2023-01-28T17:13:11;5.40;99.90
39277;DHT22;63149;48.086;-1.606;2023-01-28T17:15:38;5.40;99.90
39277;DHT22;63149;48.086;-1.606;2023-01-28T17:18:05;5.40;99.90
39277;DHT22;63149;48.086;-1.606;2023-01-28T17:20:32;5.40;99.90
39277;DHT22;63149;48.086;-1.606;2023-01-28T17:23:02;5.30;99.90
39277;DHT22;63149;48.086;-1.606;2023-01-28T17:25:35;5.30;99.90
39277;DHT22;63149;48.086;-1.606;2023-01-28T17:28:04;5.30;99.90
39277;DHT22;63149;48.086;-1.606;2023-01-28T17:30:32;5.30;99.90
39277;DHT22;63149;48.086;-1.606;2023-01-28T17:32:59;5.30;99.90
39277;DHT22;63149;48.086;-1.606;2023-01-28T17:35:26;5.30;99.90
39277;DHT22;63149;48.086;-1.606;2023-01-28T17:37:53;5.30;99.90
39277;DHT22;63149;48.086;-1.606;2023-01-28T17:40:21;5.30;99.90
39277;DHT22;63149;48.086;-1.606;2023-01-28T17:42:48;5.30;99.90
39277;DHT22;63149;48.086;-1.606;2023-01-28T17:45:16;5.30;99.90
39277;DHT22;63149;48.086;-1.606;2023-01-28T17:47:43;5.30;99.90
39277;DHT22;63149;48.086;-1.606;2023-01-28T17:50:10;5.30;99.90
39277;DHT22;63149;48.086;-1.606;2023-01-28T17:52:37;5.30;99.90
39277;DHT22;63149;48.086;-1.606;2023-01-28T17:55:06;5.30;99.90
39277;DHT22;63149;48.086;-1.606;2023-01-28T17:57:34;5.30;99.90
39277;DHT22;63149;48.086;-1.606;2023-01-28T18:00:02;5.30;99.90
39277;DHT22;63149;48.086;-1.606;2023-01-28T18:02:30;5.30;99.90
39277;DHT22;63149;48.086;-1.606;2023-01-28T18:04:57;5.30;99.90
39277;DHT22;63149;48.086;-1.606;2023-01-28T18:07:24;5.30;99.90
39277;DHT22;63149;48.086;-1.606;2023-01-28T18:09:51;5.30;99.90
39277;DHT22;63149;48.086;-1.606;2023-01-28T18:12:18;5.30;99.90
39277;DHT22;63149;48.086;-1.606;2023-01-28T18:14:45;5.30;99.90
39277;DHT22;63149;48.086;-1.606;2023-01-28T18:17:12;5.20;99.90
39277;DHT22;63149;48.086;-1.606;2023-01-28T18:19:40;5.30;99.90
39277;DHT22;63149;48.086;-1.606;2023-01-28T18:22:07;5.20;99.90
39277;DHT22;63149;48.086;-1.606;2023-01-28T18:24:34;5.20;99.90
39277;DHT22;63149;48.086;-1.606;2023-01-28T18:27:01;5.20;99.90
39277;DHT22;63149;48.086;-1.606;2023-01-28T18:29:29;5.20;99.90
39277;DHT22;63149;48.086;-1.606;2023-01-28T18:31:57;5.20;99.90
39277;DHT22;63149;48.086;-1.606;2023-01-28T18:34:26;5.30;99.90
39277;DHT22;63149;48.086;-1.606;2023-01-28T18:36:54;5.20;99.90
39277;DHT22;63149;48.086;-1.606;2023-01-28T18:39:24;5.20;99.90
39277;DHT22;63149;48.086;-1.606;2023-01-28T18:41:51;5.20;99.90
39277;DHT22;63149;48.086;-1.606;2023-01-28T18:44:20;5.20;99.90
39277;DHT22;63149;48.086;-1.606;2023-01-28T18:46:47;5.20;99.90
39277;DHT22;63149;48.086;-1.606;2023-01-28T18:49:15;5.20;99.90
39277;DHT22;63149;48.086;-1.606;2023-01-28T18:51:41;5.20;99.90
39277;DHT22;63149;48.086;-1.606;2023-01-28T18:54:12;5.20;99.90
39277;DHT22;63149;48.086;-1.606;2023-01-28T18:56:40;5.20;99.90
39277;DHT22;63149;48.086;-1.606;2023-01-28T18:59:09;5.20;99.90
39277;DHT22;63149;48.086;-1.606;2023-01-28T19:01:37;5.20;99.90
39277;DHT22;63149;48.086;-1.606;2023-01-28T19:04:05;5.20;99.90
39277;DHT22;63149;48.086;-1.606;2023-01-28T19:06:32;5.10;99.90
39277;DHT22;63149;48.086;-1.606;2023-01-28T19:09:00;5.10;99.90
39277;DHT22;63149;48.086;-1.606;2023-01-28T19:11:31;5.10;99.90
39277;DHT22;63149;48.086;-1.606;2023-01-28T19:13:58;5.10;99.90
39277;DHT22;63149;48.086;-1.606;2023-01-28T19:16:25;5.10;99.90
39277;DHT22;63149;48.086;-1.606;2023-01-28T19:18:52;5.10;99.90
39277;DHT22;63149;48.086;-1.606;2023-01-28T19:21:19;5.10;99.90
39277;DHT22;63149;48.086;-1.606;2023-01-28T19:23:47;5.10;99.90
39277;DHT22;63149;48.086;-1.606;2023-01-28T19:26:14;5.10;99.90
39277;DHT22;63149;48.086;-1.606;2023-01-28T19:28:46;5.10;99.90
39277;DHT22;63149;48.086;-1.606;2023-01-28T19:31:14;5.10;99.90
39277;DHT22;63149;48.086;-1.606;2023-01-28T19:33:43;5.00;99.90
39277;DHT22;63149;48.086;-1.606;2023-01-28T19:36:10;5.00;99.90
39277;DHT22;63149;48.086;-1.606;2023-01-28T19:38:38;5.00;99.90
39277;DHT22;63149;48.086;-1.606;2023-01-28T19:41:06;5.00;99.90
39277;DHT22;63149;48.086;-1.606;2023-01-28T19:43:33;5.00;99.90
39277;DHT22;63149;48.086;-1.606;2023-01-28T19:46:04;5.00;99.90
39277;DHT22;63149;48.086;-1.606;2023-01-28T19:48:31;5.00;99.90
39277;DHT22;63149;48.086;-1.606;2023-01-28T19:51:03;5.00;99.90
39277;DHT22;63149;48.086;-1.606;2023-01-28T19:53:32;5.00;99.90
39277;DHT22;63149;48.086;-1.606;2023-01-28T19:56:00;5.00;99.90
39277;DHT22;63149;48.086;-1.606;2023-01-28T19:58:27;5.00;99.90
39277;DHT22;63149;48.086;-1.606;2023-01-28T20:01:03;5.00;99.90
39277;DHT22;63149;48.086;-1.606;2023-01-28T20:03:30;5.00;99.90
39277;DHT22;63149;48.086;-1.606;2023-01-28T20:05:59;4.90;99.90
39277;DHT22;63149;48.086;-1.606;2023-01-28T20:08:26;4.90;99.90
39277;DHT22;63149;48.086;-1.606;2023-01-28T20:10:53;4.90;99.90
39277;DHT22;63149;48.086;-1.606;2023-01-28T20:13:20;4.90;99.90
39277;DHT22;63149;48.086;-1.606;2023-01-28T20:15:47;4.90;99.90
39277;DHT22;63149;48.086;-1.606;2023-01-28T20:18:15;4.90;99.90
39277;DHT22;63149;48.086;-1.606;2023-01-28T20:20:42;4.90;99.90
39277;DHT22;63149;48.086;-1.606;2023-01-28T20:23:16;4.90;99.90
39277;DHT22;63149;48.086;-1.606;2023-01-28T20:25:48;4.90;99.90
39277;DHT22;63149;48.086;-1.606;2023-01-28T20:28:15;4.90;99.90
39277;DHT22;63149;48.086;-1.606;2023-01-28T20:30:42;4.90;99.90
39277;DHT22;63149;48.086;-1.606;2023-01-28T20:33:09;4.90;99.90
39277;DHT22;63149;48.086;-1.606;2023-01-28T20:35:37;4.80;99.90
39277;DHT22;63149;48.086;-1.606;2023-01-28T20:38:04;4.90;99.90
39277;DHT22;63149;48.086;-1.606;2023-01-28T20:40:32;4.80;99.90
39277;DHT22;63149;48.086;-1.606;2023-01-28T20:42:58;4.80;99.90
39277;DHT22;63149;48.086;-1.606;2023-01-28T20:45:25;4.80;99.90
39277;DHT22;63149;48.086;-1.606;2023-01-28T20:47:52;4.80;99.90
39277;DHT22;63149;48.086;-1.606;2023-01-28T20:50:19;4.80;99.90
39277;DHT22;63149;48.086;-1.606;2023-01-28T20:52:47;4.80;99.90
39277;DHT22;63149;48.086;-1.606;2023-01-28T20:55:15;4.80;99.90
39277;DHT22;63149;48.086;-1.606;2023-01-28T20:57:42;4.80;99.90
39277;DHT22;63149;48.086;-1.606;2023-01-28T21:00:10;4.80;99.90
39277;DHT22;63149;48.086;-1.606;2023-01-28T21:02:37;4.80;99.90
39277;DHT22;63149;48.086;-1.606;2023-01-28T21:05:05;4.80;99.90
39277;DHT22;63149;48.086;-1.606;2023-01-28T21:07:33;4.80;99.90
39277;DHT22;63149;48.086;-1.606;2023-01-28T21:10:02;4.70;99.90
39277;DHT22;63149;48.086;-1.606;2023-01-28T21:12:29;4.80;99.90
39277;DHT22;63149;48.086;-1.606;2023-01-28T21:14:56;4.70;99.90
39277;DHT22;63149;48.086;-1.606;2023-01-28T21:17:24;4.70;99.90
39277;DHT22;63149;48.086;-1.606;2023-01-28T21:19:51;4.70;99.90
39277;DHT22;63149;48.086;-1.606;2023-01-28T21:22:18;4.70;99.90
39277;DHT22;63149;48.086;-1.606;2023-01-28T21:24:45;4.70;99.90
39277;DHT22;63149;48.086;-1.606;2023-01-28T21:27:14;4.70;99.90
39277;DHT22;63149;48.086;-1.606;2023-01-28T21:29:41;4.70;99.90
39277;DHT22;63149;48.086;-1.606;2023-01-28T21:32:08;4.70;99.90
39277;DHT22;63149;48.086;-1.606;2023-01-28T21:34:35;4.60;99.90
39277;DHT22;63149;48.086;-1.606;2023-01-28T21:37:02;4.60;99.90
39277;DHT22;63149;48.086;-1.606;2023-01-28T21:39:29;4.70;99.90
39277;DHT22;63149;48.086;-1.606;2023-01-28T21:41:56;4.60;99.90
39277;DHT22;63149;48.086;-1.606;2023-01-28T21:44:24;4.60;99.90
39277;DHT22;63149;48.086;-1.606;2023-01-28T21:46:51;4.60;99.90
39277;DHT22;63149;48.086;-1.606;2023-01-28T21:49:18;4.60;99.90
39277;DHT22;63149;48.086;-1.606;2023-01-28T21:51:45;4.60;99.90
39277;DHT22;63149;48.086;-1.606;2023-01-28T21:54:14;4.60;99.90
39277;DHT22;63149;48.086;-1.606;2023-01-28T21:56:42;4.60;99.90
39277;DHT22;63149;48.086;-1.606;2023-01-28T21:59:10;4.60;99.90
39277;DHT22;63149;48.086;-1.606;2023-01-28T22:01:59;4.60;99.90
39277;DHT22;63149;48.086;-1.606;2023-01-28T22:04:30;4.60;99.90
39277;DHT22;63149;48.086;-1.606;2023-01-28T22:06:57;4.60;99.90
39277;DHT22;63149;48.086;-1.606;2023-01-28T22:09:27;4.50;99.90
39277;DHT22;63149;48.086;-1.606;2023-01-28T22:11:54;4.50;99.90
39277;DHT22;63149;48.086;-1.606;2023-01-28T22:14:21;4.50;99.90
39277;DHT22;63149;48.086;-1.606;2023-01-28T22:16:48;4.50;99.90
39277;DHT22;63149;48.086;-1.606;2023-01-28T22:19:17;4.50;99.90
39277;DHT22;63149;48.086;-1.606;2023-01-28T22:21:44;4.50;99.90
39277;DHT22;63149;48.086;-1.606;2023-01-28T22:24:13;4.40;99.90